Time;durP1;ratioP1;P1;durP2;ratioP2;P2;SDS_P1;SDS_P2;PMS_P1;PMS_P2;Temp;Humidity;BMP_temperature;BMP_pressure;BME280_temperature;BME280_humidity;BME280_pressure;Samples;Min_cycle;Max_cycle;Signal;HPM_P1;HPM_P2
2023/01/28 00:00:47;;;;;;;36.88;14.10;;;;;2.90;99185.00;;;;4935289;29;20052;-62
2023/01/28 00:03:14;;;;;;;18.52;10.10;;;;;2.90;99186.00;;;;4935021;29;20134;-62
2023/01/28 00:05:42;;;;;;;17.60;10.70;;;;;2.90;99195.00;;;;4934595;29;20098;-62
2023/01/28 00:08:09;;;;;;;13.60;9.57;;;;;2.90;99188.00;;;;4935095;29;20051;-62
2023/01/28 00:10:38;;;;;;;17.23;11.05;;;;;2.90;99184.00;;;;4935092;29;20090;-62
2023/01/28 00:13:06;;;;;;;16.95;9.85;;;;;2.80;99174.00;;;;4934967;29;20208;-62
2023/01/28 00:15:32;;;;;;;44.03;16.17;;;;;2.70;99165.00;;;;4935415;29;20468;-62
2023/01/28 00:17:59;;;;;;;13.63;9.35;;;;;2.70;99181.00;;;;4918676;29;20099;-61
2023/01/28 00:20:25;;;;;;;8.80;7.18;;;;;2.70;99178.00;;;;4935259;29;20044;-61
2023/01/28 00:22:52;;;;;;;8.25;6.38;;;;;2.70;99178.00;;;;4935324;29;20047;-61
2023/01/28 00:25:18;;;;;;;6.97;5.57;;;;;2.70;99174.00;;;;4917657;29;20052;-61
2023/01/28 00:27:45;;;;;;;8.57;6.15;;;;;2.60;99167.00;;;;4935388;29;20043;-61
2023/01/28 00:30:15;;;;;;;8.45;6.60;;;;;2.60;99170.00;;;;4918150;29;20075;-61
2023/01/28 00:32:41;;;;;;;9.57;6.82;;;;;2.60;99166.00;;;;4935322;29;20047;-61
2023/01/28 00:35:10;;;;;;;7.35;5.88;;;;;2.70;99168.00;;;;4917700;29;20501;-61
2023/01/28 00:37:40;;;;;;;8.02;6.28;;;;;2.60;99176.00;;;;4935312;29;20050;-61
2023/01/28 00:40:08;;;;;;;9.02;6.35;;;;;2.70;99165.00;;;;4934838;29;20051;-61
2023/01/28 00:42:36;;;;;;;8.85;6.47;;;;;2.70;99171.00;;;;4934935;29;20051;-61
2023/01/28 00:45:03;;;;;;;8.98;5.65;;;;;2.70;99168.00;;;;4917101;29;20051;-61
2023/01/28 00:47:29;;;;;;;9.60;6.93;;;;;2.70;99166.00;;;;4934806;29;20055;-61
2023/01/28 00:49:56;;;;;;;8.55;7.07;;;;;2.70;99161.00;;;;4917914;29;20058;-61
2023/01/28 00:52:22;;;;;;;9.00;6.45;;;;;2.70;99169.00;;;;4934631;29;20047;-61
2023/01/28 00:54:49;;;;;;;8.25;6.00;;;;;2.70;99167.00;;;;4917363;29;20051;-61
2023/01/28 00:57:15;;;;;;;8.73;6.80;;;;;2.70;99164.00;;;;4935284;29;20072;-62
2023/01/28 00:59:42;;;;;;;9.60;7.22;;;;;2.70;99163.00;;;;4917672;29;20059;-61
2023/01/28 01:02:12;;;;;;;9.40;6.72;;;;;2.70;99160.00;;;;4917236;29;20616;-61
2023/01/28 01:04:39;;;;;;;9.43;7.00;;;;;2.80;99178.00;;;;4933836;29;20039;-61
2023/01/28 01:07:06;;;;;;;7.95;6.82;;;;;2.80;99181.00;;;;4917261;29;20062;-61
2023/01/28 01:09:32;;;;;;;10.10;7.45;;;;;2.80;99179.00;;;;4917908;29;20058;-61
2023/01/28 01:11:59;;;;;;;10.77;7.20;;;;;2.80;99170.00;;;;4934560;29;20044;-61
2023/01/28 01:14:26;;;;;;;9.13;7.32;;;;;2.80;99186.00;;;;4933676;29;20567;-61
2023/01/28 01:16:52;;;;;;;9.43;6.68;;;;;2.80;99180.00;;;;4917114;29;20047;-62
2023/01/28 01:19:19;;;;;;;6.95;6.05;;;;;2.70;99179.00;;;;4934181;29;20410;-62
2023/01/28 01:21:49;;;;;;;7.78;6.57;;;;;2.70;99173.00;;;;4917289;29;20043;-63
2023/01/28 01:24:16;;;;;;;9.75;6.75;;;;;2.80;99183.00;;;;4933857;29;20035;-63
2023/01/28 01:26:43;;;;;;;10.75;6.90;;;;;2.80;99177.00;;;;4916941;29;20505;-61
2023/01/28 01:29:10;;;;;;;9.90;6.40;;;;;2.80;99186.00;;;;4917150;29;20051;-62
2023/01/28 01:31:37;;;;;;;8.43;6.47;;;;;2.80;99186.00;;;;4934262;29;20408;-64
2023/01/28 01:34:04;;;;;;;7.30;6.38;;;;;2.80;99182.00;;;;4917147;29;20104;-61
2023/01/28 01:36:30;;;;;;;8.25;6.40;;;;;2.80;99182.00;;;;4934008;29;20047;-62
2023/01/28 01:38:57;;;;;;;9.00;6.25;;;;;2.80;99188.00;;;;4934095;29;20116;-63
2023/01/28 01:41:29;;;;;;;8.95;6.80;;;;;2.70;99179.00;;;;4916966;29;20083;-62
2023/01/28 01:43:58;;;;;;;8.13;6.50;;;;;2.70;99190.00;;;;4933864;29;20058;-61
2023/01/28 01:46:39;;;;;;;9.35;6.63;;;;;2.70;99194.00;;;;4933772;29;20054;-63
2023/01/28 01:49:20;;;;;;;7.93;6.80;;;;;2.70;99189.00;;;;4934113;29;20052;-62
2023/01/28 01:51:50;;;;;;;9.20;6.75;;;;;2.70;99185.00;;;;4936882;29;20048;-62
2023/01/28 01:54:18;;;;;;;7.35;5.68;;;;;2.80;99193.00;;;;4919951;29;20059;-62
2023/01/28 01:56:47;;;;;;;9.38;6.35;;;;;2.80;99195.00;;;;4920475;29;20054;-61
2023/01/28 01:59:20;;;;;;;7.82;6.38;;;;;2.70;99199.00;;;;4937814;29;20044;-62
2023/01/28 02:01:47;;;;;;;9.32;7.10;;;;;2.70;99194.00;;;;4920269;29;20059;-61
2023/01/28 02:04:30;;;;;;;10.90;6.15;;;;;2.70;99196.00;;;;4919686;29;20401;-63
2023/01/28 02:07:00;;;;;;;7.93;5.93;;;;;2.70;99199.00;;;;4937373;29;20043;-62
2023/01/28 02:09:28;;;;;;;7.20;5.90;;;;;2.70;99199.00;;;;4920260;29;20520;-61
2023/01/28 02:12:03;;;;;;;9.00;6.32;;;;;2.70;99200.00;;;;4920282;29;20441;-60
2023/01/28 02:14:33;;;;;;;6.32;5.60;;;;;2.70;99197.00;;;;4919568;29;20048;-61
2023/01/28 02:17:01;;;;;;;7.00;5.60;;;;;2.80;99198.00;;;;4937134;29;20520;-61
2023/01/28 02:19:43;;;;;;;6.80;5.70;;;;;2.80;99201.00;;;;4919747;29;20059;-60
2023/01/28 02:22:28;;;;;;;5.72;4.93;;;;;2.70;99198.00;;;;4919886;29;20055;-61
2023/01/28 02:25:14;;;;;;;5.43;4.70;;;;;2.70;99206.00;;;;4936653;29;20039;-61
2023/01/28 02:28:11;;;;;;;6.22;4.75;;;;;2.70;99201.00;;;;4919751;29;20076;-61
2023/01/28 02:30:50;;;;;;;6.35;4.35;;;;;2.70;99199.00;;;;4919780;29;20052;-61
2023/01/28 02:33:42;;;;;;;5.38;4.35;;;;;2.70;99202.00;;;;4919626;29;20051;-61
2023/01/28 02:36:26;;;;;;;6.35;4.47;;;;;2.60;99214.00;;;;4918732;29;20539;-61
2023/01/28 02:38:57;;;;;;;5.07;4.07;;;;;2.60;99196.00;;;;4919605;29;20048;-61
2023/01/28 02:41:31;;;;;;;4.85;3.97;;;;;2.60;99200.00;;;;4936713;29;20284;-61
2023/01/28 02:44:01;;;;;;;4.43;4.03;;;;;2.60;99204.00;;;;4919562;29;20297;-61
2023/01/28 02:49:18;;;;;;;4.15;3.63;;;;;2.60;99196.00;;;;4940175;29;20044;-61
2023/01/28 02:51:47;;;;;;;3.88;3.45;;;;;2.50;99190.00;;;;4923614;29;20536;-61
2023/01/28 02:54:27;;;;;;;5.50;3.88;;;;;2.60;99198.00;;;;4919635;29;20138;-61
2023/01/28 02:57:08;;;;;;;6.00;3.55;;;;;2.60;99189.00;;;;4919293;29;20059;-61
2023/01/28 02:59:40;;;;;;;4.97;4.10;;;;;2.60;99199.00;;;;4919301;29;20144;-61
2023/01/28 03:02:19;;;;;;;4.10;3.70;;;;;2.50;99195.00;;;;4917958;29;20505;-61
2023/01/28 03:04:54;;;;;;;4.05;3.65;;;;;2.50;99193.00;;;;4918715;29;20151;-61
2023/01/28 03:07:24;;;;;;;4.07;3.45;;;;;2.50;99208.00;;;;4919106;29;20052;-61
2023/01/28 03:09:52;;;;;;;4.05;3.65;;;;;2.50;99209.00;;;;4919300;29;20071;-61
2023/01/28 03:38:47;;;;;;;3.75;3.42;;;;;2.40;99225.00;;;;4921011;29;20044;-61
2023/01/28 03:41:23;;;;;;;3.67;3.22;;;;;2.40;99232.00;;;;4920101;29;20052;-60
2023/01/28 03:43:52;;;;;;;5.35;3.67;;;;;2.40;99221.00;;;;4920187;29;20059;-61
2023/01/28 03:46:19;;;;;;;5.70;3.50;;;;;2.40;99227.00;;;;4918301;29;20107;-60
2023/01/28 03:48:46;;;;;;;4.22;3.38;;;;;2.40;99217.00;;;;4935670;29;20146;-60
2023/01/28 03:51:14;;;;;;;5.22;3.50;;;;;2.40;99222.00;;;;4918623;29;20128;-61
2023/01/28 03:53:40;;;;;;;3.88;3.40;;;;;2.40;99228.00;;;;4935559;29;20051;-61
2023/01/28 03:56:07;;;;;;;3.53;2.90;;;;;2.40;99230.00;;;;4917724;29;20135;-61
2023/01/28 03:58:55;;;;;;;5.35;3.17;;;;;2.40;99229.00;;;;4918400;29;20609;-60
2023/01/28 04:01:23;;;;;;;5.90;3.83;;;;;2.40;99224.00;;;;4918345;29;20058;-61
2023/01/28 04:03:50;;;;;;;3.35;2.88;;;;;2.40;99222.00;;;;4918614;29;20146;-61
2023/01/28 04:06:27;;;;;;;3.72;3.13;;;;;2.40;99216.00;;;;4918183;29;20103;-61
2023/01/28 04:09:00;;;;;;;;;;;;;2.50;99229.00;;;;4919049;29;20039;-60
2023/01/28 04:11:49;;;;;;;3.45;3.05;;;;;2.40;99230.00;;;;4918400;29;19923;-61
2023/01/28 04:14:22;;;;;;;5.47;3.15;;;;;2.40;99232.00;;;;4917717;29;20069;-61
2023/01/28 04:16:55;;;;;;;3.40;3.00;;;;;2.40;99230.00;;;;4918569;29;20056;-61
2023/01/28 04:19:24;;;;;;;3.40;3.10;;;;;2.40;99238.00;;;;4918312;29;20519;-61
2023/01/28 04:21:53;;;;;;;4.18;3.13;;;;;2.40;99234.00;;;;4918303;29;20081;-61
2023/01/28 04:24:20;;;;;;;4.35;3.33;;;;;2.40;99234.00;;;;4917890;29;20445;-61
2023/01/28 04:26:47;;;;;;;3.10;2.83;;;;;2.40;99241.00;;;;4918169;29;20055;-60
2023/01/28 04:29:14;;;;;;;3.72;3.05;;;;;2.40;99245.00;;;;4918184;29;20131;-60
2023/01/28 04:31:41;;;;;;;4.30;3.63;;;;;2.40;99241.00;;;;4918279;29;20103;-61
2023/01/28 04:34:37;;;;;;;4.05;3.42;;;;;2.50;99239.00;;;;4917659;29;20051;-60
2023/01/28 04:37:22;;;;;;;4.03;3.38;;;;;2.50;99239.00;;;;4935520;29;20058;-60
2023/01/28 04:40:05;;;;;;;3.22;2.72;;;;;2.40;99240.00;;;;4917928;29;20056;-59
2023/01/28 04:42:54;;;;;;;3.95;2.72;;;;;2.40;99244.00;;;;4935952;29;20073;-61
2023/01/28 04:45:40;;;;;;;3.42;2.75;;;;;2.40;99245.00;;;;4925450;29;20051;-59
2023/01/28 04:48:26;;;;;;;2.90;2.55;;;;;2.30;99248.00;;;;4936820;29;20055;-61
2023/01/28 04:51:06;;;;;;;2.85;2.55;;;;;2.40;99246.00;;;;4918940;29;20051;-60
2023/01/28 04:53:51;;;;;;;3.53;2.72;;;;;2.30;99250.00;;;;4935727;29;20058;-60
2023/01/28 04:56:23;;;;;;;3.20;2.58;;;;;2.30;99253.00;;;;4917950;29;20400;-60
2023/01/28 04:58:50;;;;;;;2.70;2.30;;;;;2.30;99248.00;;;;4918210;29;20071;-61
2023/01/28 05:01:17;;;;;;;4.60;2.85;;;;;2.30;99251.00;;;;4918133;29;20044;-61
2023/01/28 05:03:43;;;;;;;5.53;2.83;;;;;2.30;99253.00;;;;4917929;29;20071;-60
2023/01/28 05:06:17;;;;;;;2.83;2.53;;;;;2.30;99254.00;;;;4917749;29;20134;-60
2023/01/28 05:08:45;;;;;;;3.80;3.20;;;;;2.30;99259.00;;;;4918136;29;20044;-59
2023/01/28 05:11:14;;;;;;;4.28;2.40;;;;;2.30;99254.00;;;;4918091;29;20052;-60
2023/01/28 05:13:42;;;;;;;2.90;2.63;;;;;2.30;99252.00;;;;4917914;29;20127;-60
2023/01/28 05:16:11;;;;;;;3.75;3.08;;;;;2.30;99254.00;;;;4917581;29;20083;-61
2023/01/28 05:18:37;;;;;;;4.78;2.83;;;;;2.30;99264.00;;;;4918253;29;20114;-61
2023/01/28 05:21:10;;;;;;;4.45;2.95;;;;;2.30;99258.00;;;;4917727;29;20055;-60
2023/01/28 05:23:38;;;;;;;3.25;2.72;;;;;2.40;99263.00;;;;4917649;29;20132;-61
2023/01/28 05:26:04;;;;;;;3.95;2.90;;;;;2.40;99262.00;;;;4936234;29;20047;-61
2023/01/28 05:28:32;;;;;;;4.30;2.95;;;;;2.40;99266.00;;;;4922188;29;20443;-60
2023/01/28 05:31:03;;;;;;;4.40;2.42;;;;;2.30;99255.00;;;;4938991;29;20139;-60
2023/01/28 05:33:30;;;;;;;3.15;2.40;;;;;2.40;99275.00;;;;4921306;29;20055;-61
2023/01/28 05:35:58;;;;;;;3.65;2.97;;;;;2.40;99269.00;;;;4920952;29;20054;-61
2023/01/28 05:38:24;;;;;;;3.13;2.25;;;;;2.40;99279.00;;;;4921137;29;20043;-60
2023/01/28 05:40:50;;;;;;;3.53;2.47;;;;;2.40;99269.00;;;;4921244;29;20063;-59
2023/01/28 05:43:17;;;;;;;2.47;2.20;;;;;2.50;99272.00;;;;4921059;29;20055;-62
2023/01/28 05:45:50;;;;;;;2.38;2.17;;;;;2.50;99275.00;;;;4920741;29;20464;-62
2023/01/28 05:48:22;;;;;;;5.22;2.78;;;;;2.50;99281.00;;;;4921408;29;20485;-62
2023/01/28 05:51:15;;;;;;;5.22;2.60;;;;;2.50;99288.00;;;;4936953;29;20134;-62
2023/01/28 05:53:44;;;;;;;12.85;7.95;;;;;2.50;99285.00;;;;4920772;29;20044;-61
2023/01/28 05:56:11;;;;;;;15.30;5.95;;;;;2.50;99285.00;;;;4920672;29;20048;-61
2023/01/28 05:58:39;;;;;;;3.75;2.97;;;;;2.50;99281.00;;;;4920924;29;20055;-61
2023/01/28 06:01:06;;;;;;;5.10;2.38;;;;;2.60;99287.00;;;;4921132;29;20467;-62
2023/01/28 06:03:38;;;;;;;4.05;2.50;;;;;2.70;99293.00;;;;4921168;29;20465;-62
2023/01/28 06:06:05;;;;;;;4.35;2.75;;;;;2.70;99291.00;;;;4920404;29;20050;-61
2023/01/28 06:08:31;;;;;;;3.40;2.40;;;;;2.70;99299.00;;;;4921234;29;20047;-59
2023/01/28 06:10:59;;;;;;;4.40;2.33;;;;;2.70;99307.00;;;;4920827;29;20043;-61
2023/01/28 06:13:30;;;;;;;3.15;2.33;;;;;2.70;99298.00;;;;4920705;29;20082;-62
2023/01/28 06:16:21;;;;;;;12.05;2.95;;;;;2.70;99313.00;;;;4920085;29;20512;-62
2023/01/28 06:19:18;;;;;;;2.38;2.17;;;;;2.80;99320.00;;;;4920769;29;20445;-62
2023/01/28 06:21:44;;;;;;;3.33;2.40;;;;;2.70;99317.00;;;;4920405;29;20048;-62
2023/01/28 06:24:12;;;;;;;2.35;2.15;;;;;2.70;99315.00;;;;4919911;29;20051;-62
2023/01/28 06:26:40;;;;;;;3.60;2.65;;;;;2.70;99309.00;;;;4920331;29;20055;-62
2023/01/28 06:29:06;;;;;;;3.03;2.72;;;;;2.70;99312.00;;;;4937546;29;20239;-62
2023/01/28 06:31:33;;;;;;;2.95;2.13;;;;;2.70;99332.00;;;;4937379;29;20050;-62
2023/01/28 06:33:59;;;;;;;3.47;2.60;;;;;2.70;99319.00;;;;4937414;29;20509;-62
2023/01/28 06:36:26;;;;;;;2.92;2.65;;;;;2.80;99335.00;;;;4936852;29;20039;-61
2023/01/28 06:38:53;;;;;;;12.13;7.55;;;;;2.80;99338.00;;;;4937370;29;20044;-62
2023/01/28 06:41:19;;;;;;;8.52;5.93;;;;;2.80;99350.00;;;;4937505;29;20560;-62
2023/01/28 06:43:46;;;;;;;3.67;3.10;;;;;2.80;99343.00;;;;4922507;29;20071;-62
2023/01/28 06:46:12;;;;;;;4.35;3.22;;;;;2.80;99349.00;;;;4940940;29;20048;-61
2023/01/28 06:48:39;;;;;;;3.42;3.00;;;;;2.70;99351.00;;;;4941488;29;20048;-61
2023/01/28 06:51:05;;;;;;;3.53;2.78;;;;;2.70;99349.00;;;;4937326;29;20043;-61
2023/01/28 06:53:32;;;;;;;4.53;3.63;;;;;2.70;99348.00;;;;4937142;29;20193;-61
2023/01/28 06:55:58;;;;;;;3.20;2.90;;;;;2.70;99357.00;;;;4936900;29;20048;-60
2023/01/28 06:58:25;;;;;;;4.70;3.05;;;;;2.70;99360.00;;;;4937068;29;20128;-60
2023/01/28 07:00:52;;;;;;;4.60;2.75;;;;;2.70;99364.00;;;;4937536;29;20039;-61
2023/01/28 07:03:19;;;;;;;3.50;3.20;;;;;2.70;99359.00;;;;4920635;29;20058;-59
2023/01/28 07:05:46;;;;;;;4.35;3.42;;;;;2.70;99369.00;;;;4936539;29;20493;-60
2023/01/28 07:08:13;;;;;;;3.13;2.75;;;;;2.80;99364.00;;;;4936930;29;20047;-59
2023/01/28 07:10:39;;;;;;;3.47;2.90;;;;;2.90;99372.00;;;;4936870;29;20043;-60
2023/01/28 07:13:06;;;;;;;3.83;3.22;;;;;2.90;99370.00;;;;4936720;29;20425;-61
2023/01/28 07:15:32;;;;;;;3.03;2.80;;;;;2.90;99362.00;;;;4936255;29;20058;-61
2023/01/28 07:17:59;;;;;;;5.53;3.67;;;;;2.90;99368.00;;;;4919823;29;20047;-60
2023/01/28 07:20:25;;;;;;;6.28;3.33;;;;;2.80;99369.00;;;;4936837;29;20405;-61
2023/01/28 07:22:52;;;;;;;3.63;3.25;;;;;2.90;99374.00;;;;4936715;29;20329;-60
2023/01/28 07:25:18;;;;;;;3.88;3.40;;;;;2.90;99364.00;;;;4918981;29;20036;-61
2023/01/28 07:27:50;;;;;;;3.47;3.17;;;;;2.90;99366.00;;;;4936860;29;20054;-61
2023/01/28 07:30:18;;;;;;;5.05;3.25;;;;;2.80;99365.00;;;;4936946;29;20090;-60
2023/01/28 07:32:46;;;;;;;4.38;3.42;;;;;2.80;99358.00;;;;4936542;29;20039;-63
2023/01/28 07:35:12;;;;;;;3.50;3.17;;;;;2.70;99355.00;;;;4936068;29;20277;-63
2023/01/28 07:37:39;;;;;;;2.83;2.55;;;;;2.70;99371.00;;;;4936261;29;20047;-62
2023/01/28 07:40:06;;;;;;;3.25;2.95;;;;;2.70;99376.00;;;;4936152;29;20069;-62
2023/01/28 07:42:33;;;;;;;3.13;2.80;;;;;2.60;99364.00;;;;4936279;29;20052;-62
2023/01/28 07:45:04;;;;;;;3.33;2.92;;;;;2.60;99371.00;;;;4918680;29;20052;-62
2023/01/28 07:47:30;;;;;;;2.90;2.60;;;;;2.50;99372.00;;;;4919069;29;20059;-63
2023/01/28 07:49:57;;;;;;;3.28;2.97;;;;;2.50;99373.00;;;;4918897;29;20043;-63
2023/01/28 07:52:23;;;;;;;8.10;3.10;;;;;2.50;99373.00;;;;4935896;29;20048;-62
2023/01/28 07:54:50;;;;;;;3.88;2.90;;;;;2.60;99379.00;;;;4935654;29;20055;-63
2023/01/28 07:57:22;;;;;;;3.38;3.08;;;;;2.60;99386.00;;;;4936002;29;20047;-63
2023/01/28 07:59:49;;;;;;;3.22;2.70;;;;;2.60;99378.00;;;;4936003;29;20138;-63
2023/01/28 08:02:17;;;;;;;2.78;2.58;;;;;2.50;99381.00;;;;4935969;29;20054;-63
2023/01/28 08:04:45;;;;;;;4.38;2.85;;;;;2.50;99377.00;;;;4938380;29;20062;-61
2023/01/28 08:07:11;;;;;;;4.63;3.17;;;;;2.50;99381.00;;;;4923911;29;20099;-61
2023/01/28 08:09:38;;;;;;;3.72;2.80;;;;;2.60;99385.00;;;;4940051;29;20498;-62
2023/01/28 08:12:05;;;;;;;3.05;2.72;;;;;2.60;99382.00;;;;4923136;29;20091;-62
2023/01/28 08:14:31;;;;;;;3.08;2.83;;;;;2.60;99390.00;;;;4921942;29;20048;-62
2023/01/28 08:16:58;;;;;;;3.00;2.70;;;;;2.60;99399.00;;;;4922785;29;20047;-61
2023/01/28 08:19:24;;;;;;;3.70;3.20;;;;;2.60;99391.00;;;;4938404;29;20050;-62
2023/01/28 08:21:51;;;;;;;3.50;2.38;;;;;2.60;99394.00;;;;4922920;29;20070;-62
2023/01/28 08:24:17;;;;;;;3.97;3.00;;;;;2.50;99401.00;;;;4939684;29;20056;-61
2023/01/28 08:26:47;;;;;;;2.90;2.60;;;;;2.50;99389.00;;;;4923032;29;20055;-62
2023/01/28 08:29:13;;;;;;;3.25;2.67;;;;;2.60;99401.00;;;;4940194;29;20040;-62
2023/01/28 08:31:40;;;;;;;2.90;2.65;;;;;2.60;99387.00;;;;4922673;29;20052;-62
2023/01/28 08:34:06;;;;;;;3.40;2.88;;;;;2.60;99403.00;;;;4938503;29;20048;-61
2023/01/28 08:36:33;;;;;;;4.18;2.63;;;;;2.60;99398.00;;;;4940210;29;20062;-61
2023/01/28 08:38:59;;;;;;;3.50;3.13;;;;;2.60;99403.00;;;;4940550;29;20047;-61
2023/01/28 08:41:26;;;;;;;3.75;2.80;;;;;2.60;99395.00;;;;4940069;29;20103;-61
2023/01/28 08:43:53;;;;;;;3.70;2.90;;;;;2.60;99393.00;;;;4939215;29;20051;-62
2023/01/28 08:46:19;;;;;;;3.35;2.83;;;;;2.70;99396.00;;;;4938933;29;20048;-61
2023/01/28 08:48:48;;;;;;;3.30;3.00;;;;;2.70;99394.00;;;;4938906;29;20079;-63
2023/01/28 08:51:15;;;;;;;3.65;3.35;;;;;2.70;99393.00;;;;4938527;29;20497;-62
2023/01/28 08:53:42;;;;;;;4.07;3.30;;;;;2.70;99402.00;;;;4938264;29;20055;-62
2023/01/28 08:56:08;;;;;;;5.15;3.42;;;;;2.80;99405.00;;;;4939181;29;20516;-62
2023/01/28 08:58:35;;;;;;;6.68;3.17;;;;;2.80;99394.00;;;;4938749;29;20501;-63
2023/01/28 09:01:05;;;;;;;4.78;3.13;;;;;2.80;99390.00;;;;4938637;29;20047;-61
2023/01/28 09:03:32;;;;;;;3.13;2.83;;;;;2.90;99392.00;;;;4937276;29;20048;-62
2023/01/28 09:06:03;;;;;;;2.85;2.60;;;;;3.00;99396.00;;;;4935849;29;20047;-61
2023/01/28 09:08:29;;;;;;;2.97;2.67;;;;;3.10;99407.00;;;;4918844;29;20052;-61
2023/01/28 09:10:56;;;;;;;3.50;2.92;;;;;3.10;99392.00;;;;4936303;29;20047;-62
2023/01/28 09:13:24;;;;;;;4.45;2.90;;;;;3.10;99398.00;;;;4920115;29;20448;-63
2023/01/28 09:15:50;;;;;;;3.97;3.28;;;;;3.10;99392.00;;;;4934996;29;20051;-61
2023/01/28 09:18:18;;;;;;;3.33;3.00;;;;;3.10;99395.00;;;;4935397;29;20525;-62
2023/01/28 09:20:45;;;;;;;6.18;3.25;;;;;3.20;99404.00;;;;4935620;29;20404;-61
2023/01/28 09:23:12;;;;;;;5.03;3.20;;;;;3.30;99408.00;;;;4935995;29;20062;-62
2023/01/28 09:25:39;;;;;;;3.95;3.30;;;;;3.40;99415.00;;;;4934822;29;20136;-62
2023/01/28 09:28:06;;;;;;;5.60;3.45;;;;;3.40;99415.00;;;;4918178;29;20425;-62
2023/01/28 09:30:34;;;;;;;3.50;2.72;;;;;3.40;99430.00;;;;4935251;29;20106;-62
2023/01/28 09:33:03;;;;;;;4.88;3.15;;;;;3.40;99422.00;;;;4935459;29;20062;-63
2023/01/28 09:35:29;;;;;;;4.55;3.22;;;;;3.50;99433.00;;;;4934759;29;20043;-62
2023/01/28 09:37:57;;;;;;;5.60;3.72;;;;;3.50;99429.00;;;;4935285;29;20048;-62
2023/01/28 09:40:37;;;;;;;4.07;3.40;;;;;3.50;99435.00;;;;4918419;29;20460;-62
2023/01/28 09:43:45;;;;;;;5.10;3.45;;;;;3.40;99430.00;;;;4936691;29;20051;-62
2023/01/28 09:46:14;;;;;;;4.18;3.53;;;;;3.40;99439.00;;;;4928166;29;20064;-62
2023/01/28 09:48:46;;;;;;;4.97;3.92;;;;;3.50;99429.00;;;;4936935;29;20054;-62
2023/01/28 09:51:33;;;;;;;3.40;3.05;;;;;3.50;99432.00;;;;4936320;29;20044;-63
2023/01/28 09:54:04;;;;;;;5.60;2.65;;;;;3.50;99436.00;;;;4918668;29;20052;-62
2023/01/28 09:56:38;;;;;;;6.90;3.65;;;;;3.40;99444.00;;;;4935489;29;20048;-62
2023/01/28 09:59:25;;;;;;;4.78;3.40;;;;;3.60;99431.00;;;;4936077;29;20055;-62
2023/01/28 10:02:27;;;;;;;3.65;3.17;;;;;3.50;99441.00;;;;4935323;29;20059;-63
2023/01/28 10:05:13;;;;;;;3.95;3.00;;;;;3.50;99443.00;;;;4914173;29;20068;-63
2023/01/28 10:08:02;;;;;;;4.30;3.35;;;;;3.50;99441.00;;;;4935961;29;20060;-63
2023/01/28 10:10:45;;;;;;;3.83;3.30;;;;;3.50;99435.00;;;;4918895;29;20135;-63
2023/01/28 10:13:56;;;;;;;3.60;3.10;;;;;3.40;99443.00;;;;4938940;29;20059;-63
2023/01/28 10:16:36;;;;;;;4.68;3.35;;;;;3.50;99447.00;;;;4933169;29;20461;-62
2023/01/28 10:19:11;;;;;;;5.00;3.50;;;;;3.40;99452.00;;;;4920832;29;20505;-63
2023/01/28 10:21:45;;;;;;;4.68;3.35;;;;;3.40;99456.00;;;;4937782;29;20040;-61
2023/01/28 10:24:30;;;;;;;5.32;2.92;;;;;3.40;99457.00;;;;4937827;29;20047;-63
2023/01/28 10:26:57;;;;;;;3.88;3.10;;;;;3.40;99456.00;;;;4937808;29;20060;-63
2023/01/28 10:29:32;;;;;;;4.57;3.35;;;;;3.40;99465.00;;;;4937714;29;20047;-62
2023/01/28 10:32:04;;;;;;;5.57;3.47;;;;;3.30;99453.00;;;;4937589;29;20398;-63
2023/01/28 10:34:31;;;;;;;4.45;3.53;;;;;3.40;99456.00;;;;4937157;29;20058;-63
2023/01/28 10:36:57;;;;;;;4.53;3.40;;;;;3.30;99460.00;;;;4937682;29;20073;-63
2023/01/28 10:39:25;;;;;;;4.93;3.05;;;;;3.40;99459.00;;;;4937779;29;20055;-63
2023/01/28 10:41:52;;;;;;;4.38;3.20;;;;;3.50;99461.00;;;;4920868;29;20047;-63
2023/01/28 10:44:33;;;;;;;6.35;4.10;;;;;3.50;99459.00;;;;4937234;29;20079;-63
2023/01/28 10:47:06;;;;;;;4.47;3.40;;;;;3.60;99464.00;;;;4937916;29;20071;-62
2023/01/28 10:49:42;;;;;;;3.85;3.33;;;;;3.60;99465.00;;;;4921166;29;20107;-61
2023/01/28 10:52:13;;;;;;;3.97;3.50;;;;;3.60;99463.00;;;;4937893;29;20047;-62
2023/01/28 10:54:40;;;;;;;5.53;3.65;;;;;3.60;99461.00;;;;4937067;29;20152;-63
2023/01/28 10:57:12;;;;;;;6.35;3.70;;;;;3.60;99462.00;;;;4921123;29;20052;-63
2023/01/28 10:59:40;;;;;;;5.05;3.60;;;;;3.60;99458.00;;;;4937679;29;20063;-63
2023/01/28 11:02:39;;;;;;;5.68;3.65;;;;;3.60;99469.00;;;;4937099;29;20063;-62
2023/01/28 11:05:16;;;;;;;4.00;3.53;;;;;3.60;99470.00;;;;4936551;29;20386;-63
2023/01/28 11:07:43;;;;;;;4.60;3.03;;;;;3.50;99469.00;;;;4920001;29;20063;-63
2023/01/28 11:10:32;;;;;;;5.55;3.42;;;;;3.60;99462.00;;;;4920228;29;20525;-63
2023/01/28 11:13:02;;;;;;;4.65;3.80;;;;;3.60;99472.00;;;;4936962;29;20044;-60
2023/01/28 11:15:29;;;;;;;3.40;3.10;;;;;3.60;99466.00;;;;4936345;29;20050;-63
2023/01/28 11:18:00;;;;;;;7.38;3.97;;;;;3.60;99471.00;;;;4919800;29;20059;-62
2023/01/28 11:20:34;;;;;;;5.20;3.65;;;;;3.70;99468.00;;;;4936417;29;20485;-62
2023/01/28 11:23:00;;;;;;;3.60;3.28;;;;;3.70;99461.00;;;;4935509;29;20051;-63
2023/01/28 11:25:31;;;;;;;3.85;2.97;;;;;3.70;99465.00;;;;4936243;29;20429;-63
2023/01/28 11:28:00;;;;;;;5.10;3.50;;;;;3.70;99466.00;;;;4936614;29;20055;-62
2023/01/28 11:30:33;;;;;;;3.63;3.22;;;;;3.70;99466.00;;;;4936809;29;20035;-62
2023/01/28 11:33:22;;;;;;;5.00;3.25;;;;;3.60;99477.00;;;;4936826;29;20501;-62
2023/01/28 11:36:02;;;;;;;4.85;3.20;;;;;3.60;99473.00;;;;4936155;29;20125;-63
2023/01/28 11:38:29;;;;;;;7.18;3.17;;;;;3.70;99473.00;;;;4936516;29;20382;-63
2023/01/28 11:40:57;;;;;;;5.00;2.95;;;;;3.60;99467.00;;;;4919270;29;20054;-63
2023/01/28 11:43:26;;;;;;;4.68;3.05;;;;;3.60;99466.00;;;;4936049;29;20509;-63
2023/01/28 11:46:04;;;;;;;3.40;3.10;;;;;3.60;99461.00;;;;4935575;29;20062;-63
2023/01/28 11:48:43;;;;;;;3.20;2.90;;;;;3.60;99465.00;;;;4936212;29;20150;-63
2023/01/28 11:51:12;;;;;;;4.75;3.15;;;;;3.60;99448.00;;;;4919224;29;20062;-63
2023/01/28 11:54:10;;;;;;;4.88;3.35;;;;;3.60;99453.00;;;;4935982;29;20044;-61
2023/01/28 11:57:06;;;;;;;4.63;3.50;;;;;3.60;99458.00;;;;4936132;29;20043;-63
2023/01/28 11:59:58;;;;;;;4.45;3.55;;;;;3.60;99459.00;;;;4936156;29;20063;-63
2023/01/28 12:03:00;;;;;;;4.20;3.67;;;;;3.60;99453.00;;;;4935794;29;20058;-63
2023/01/28 12:05:45;;;;;;;4.93;3.70;;;;;3.60;99446.00;;;;4935344;29;20043;-62
2023/01/28 12:08:19;;;;;;;;;;;;;3.70;99452.00;;;;4936175;29;20048;-63
2023/01/28 12:11:06;;;;;;;4.68;4.00;;;;;3.70;99445.00;;;;4918739;29;19923;-62
2023/01/28 12:13:57;;;;;;;5.63;3.85;;;;;3.60;99451.00;;;;4918387;29;20509;-60
2023/01/28 12:16:56;;;;;;;6.78;4.22;;;;;3.60;99445.00;;;;4918030;29;20087;-62
2023/01/28 12:19:51;;;;;;;4.20;3.80;;;;;3.60;99443.00;;;;4935645;29;20280;-63
2023/01/28 12:22:45;;;;;;;5.07;4.22;;;;;3.60;99451.00;;;;4935583;29;20047;-63
2023/01/28 12:25:30;;;;;;;5.67;4.17;;;;;3.60;99445.00;;;;4935071;29;20061;-63
2023/01/28 12:28:05;;;;;;;6.57;3.97;;;;;3.50;99439.00;;;;4935568;29;20103;-63
2023/01/28 12:31:02;;;;;;;5.93;4.10;;;;;3.50;99446.00;;;;4918481;29;20052;-63
2023/01/28 12:33:46;;;;;;;6.13;4.43;;;;;3.50;99441.00;;;;4935526;29;20083;-63
2023/01/28 12:36:31;;;;;;;5.55;4.20;;;;;3.50;99440.00;;;;4917861;29;20408;-63
2023/01/28 12:39:18;;;;;;;6.28;4.22;;;;;3.50;99442.00;;;;4918495;29;20055;-62
2023/01/28 12:41:56;;;;;;;4.78;4.20;;;;;3.50;99438.00;;;;4935266;29;20098;-63
2023/01/28 12:44:33;;;;;;;6.88;3.95;;;;;3.50;99426.00;;;;4934904;29;20118;-63
2023/01/28 12:47:07;;;;;;;5.45;4.25;;;;;3.50;99440.00;;;;4918666;29;20413;-63
2023/01/28 12:49:38;;;;;;;6.65;3.75;;;;;3.50;99437.00;;;;4918798;29;20048;-59
2023/01/28 12:52:22;;;;;;;5.85;4.93;;;;;3.60;99434.00;;;;4936442;29;20457;-61
2023/01/28 12:55:03;;;;;;;4.80;3.90;;;;;3.60;99436.00;;;;4919310;29;20055;-60
2023/01/28 12:57:31;;;;;;;4.82;3.63;;;;;3.60;99430.00;;;;4936196;29;20047;-60
2023/01/28 13:00:22;;;;;;;4.88;3.80;;;;;3.50;99427.00;;;;4918970;29;20043;-59
2023/01/28 13:03:20;;;;;;;4.10;3.67;;;;;3.40;99438.00;;;;4918672;29;20051;-61
2023/01/28 13:05:52;;;;;;;4.40;3.45;;;;;3.30;99438.00;;;;4934153;29;20410;-60
2023/01/28 13:08:27;;;;;;;6.80;3.95;;;;;3.20;99442.00;;;;4935185;29;20416;-60
2023/01/28 13:10:55;;;;;;;;;;;;;3.30;99443.00;;;;4935826;29;20457;-60
2023/01/28 13:13:31;;;;;;;3.80;3.33;;;;;3.20;99436.00;;;;4934914;29;19923;-60
2023/01/28 13:15:59;;;;;;;4.18;3.33;;;;;3.10;99440.00;;;;4934285;29;20394;-60
2023/01/28 13:18:38;;;;;;;4.05;3.50;;;;;3.10;99443.00;;;;4934842;29;20095;-61
2023/01/28 13:21:06;;;;;;;4.40;3.53;;;;;3.00;99440.00;;;;4934699;29;20040;-62
2023/01/28 13:23:46;;;;;;;4.50;3.65;;;;;3.10;99441.00;;;;4918237;29;20059;-63